createdAt,value
2019-01-21T00:01:15.187Z,-0.05
2019-01-21T00:03:42.246Z,0.07
2019-01-21T00:06:08.217Z,0.03
2019-01-21T00:08:34.199Z,0.11
2019-01-21T00:11:00.147Z,0.04
2019-01-21T00:13:25.997Z,0.04
2019-01-21T00:15:51.962Z,0.12
2019-01-21T00:18:17.980Z,-0.03
2019-01-21T00:20:43.883Z,-0.06
2019-01-21T00:23:09.735Z,0.03
2019-01-21T00:25:35.688Z,-0.03
2019-01-21T00:28:01.552Z,-0.11
2019-01-21T00:30:27.425Z,-0.08
2019-01-21T00:32:53.373Z,-0.10
2019-01-21T00:35:19.238Z,-0.11
2019-01-21T00:37:48.430Z,-0.15
2019-01-21T00:40:15.826Z,-0.11
2019-01-21T00:42:41.857Z,-0.16
2019-01-21T00:45:07.770Z,-0.18
2019-01-21T00:47:33.637Z,-0.23
2019-01-21T00:49:59.646Z,-0.30
2019-01-21T00:52:25.549Z,-0.35
2019-01-21T00:54:51.531Z,-0.41
2019-01-21T00:57:17.418Z,-0.48
2019-01-21T00:59:43.510Z,-0.48
2019-01-21T01:02:09.393Z,-0.43
2019-01-21T01:04:35.257Z,-0.45
2019-01-21T01:07:01.251Z,-0.46
2019-01-21T01:09:27.119Z,-0.42
2019-01-21T01:11:53.016Z,-0.44
2019-01-21T01:14:18.880Z,-0.32
2019-01-21T01:16:44.743Z,-0.26
2019-01-21T01:19:10.605Z,-0.22
2019-01-21T01:21:36.569Z,-0.18
2019-01-21T01:24:02.437Z,-0.31
2019-01-21T01:26:28.356Z,-0.28
2019-01-21T01:28:54.244Z,-0.26
2019-01-21T01:31:20.091Z,-0.18
2019-01-21T01:33:46.022Z,-0.16
2019-01-21T01:36:11.904Z,-0.17
2019-01-21T01:38:37.791Z,-0.22
2019-01-21T01:41:03.863Z,-0.25
2019-01-21T01:43:29.753Z,-0.32
2019-01-21T01:45:55.627Z,-0.27
2019-01-21T01:48:21.523Z,-0.29
2019-01-21T01:50:47.529Z,-0.29
2019-01-21T01:53:13.427Z,-0.32
2019-01-21T01:55:39.295Z,-0.28
2019-01-21T01:58:05.267Z,-0.26
2019-01-21T02:00:31.171Z,-0.32
2019-01-21T02:02:59.080Z,-0.43
2019-01-21T02:05:25.185Z,-0.46
2019-01-21T02:07:51.181Z,-0.31
2019-01-21T02:10:17.157Z,-0.39
2019-01-21T02:12:43.452Z,-0.39
2019-01-21T02:15:11.341Z,-0.25
2019-01-21T02:17:37.416Z,-0.27
2019-01-21T02:20:06.992Z,-0.34
2019-01-21T02:22:33.017Z,-0.38
2019-01-21T02:25:00.212Z,-0.35
2019-01-21T02:27:30.435Z,-0.29
2019-01-21T02:30:25.818Z,-0.34
2019-01-21T02:33:01.114Z,-0.45
2019-01-21T02:35:37.550Z,-0.42
2019-01-21T02:38:10.193Z,-0.38
2019-01-21T02:40:45.523Z,-0.40
2019-01-21T02:43:30.337Z,-0.47
2019-01-21T02:46:11.966Z,-0.50
2019-01-21T02:48:44.674Z,-0.51
2019-01-21T02:51:20.751Z,-0.57
2019-01-21T02:54:02.716Z,-0.64
2019-01-21T02:56:38.436Z,-0.61
2019-01-21T02:59:20.135Z,-0.54
2019-01-21T03:02:07.861Z,-0.59
2019-01-21T03:05:11.127Z,-0.53
2019-01-21T03:07:46.223Z,-0.56
2019-01-21T03:10:35.834Z,-0.62
2019-01-21T03:13:11.667Z,-0.59
2019-01-21T03:15:47.649Z,-0.70
2019-01-21T03:18:17.322Z,-0.66
2019-01-21T03:21:04.305Z,-0.61
2019-01-21T03:23:33.986Z,-0.59
2019-01-21T03:26:21.991Z,-0.65
2019-01-21T03:28:51.764Z,-0.62
2019-01-21T03:31:24.463Z,-0.63
2019-01-21T03:34:06.221Z,-0.65
2019-01-21T03:36:48.146Z,-0.63
2019-01-21T03:39:34.433Z,-0.68
2019-01-21T03:42:04.134Z,-0.77
2019-01-21T03:44:49.181Z,-0.80
2019-01-21T03:47:24.679Z,-0.76
2019-01-21T03:50:09.577Z,-0.88
2019-01-21T03:52:57.708Z,-0.88
2019-01-21T03:55:23.752Z,-0.91
2019-01-21T03:57:56.489Z,-0.75
2019-01-21T04:00:29.318Z,-0.74
2019-01-21T04:03:14.041Z,-0.77
2019-01-21T04:05:49.475Z,-0.80
2019-01-21T04:08:28.724Z,-0.87
2019-01-21T04:11:03.748Z,-0.86
2019-01-21T04:13:56.246Z,-0.92
2019-01-21T04:16:49.188Z,-0.92
2019-01-21T04:19:24.866Z,-0.90
2019-01-21T04:22:10.214Z,-0.92
2019-01-21T04:24:45.856Z,-0.82
2019-01-21T04:27:33.756Z,-0.95
2019-01-21T04:30:21.843Z,-1.00
2019-01-21T04:32:57.510Z,-0.88
2019-01-21T04:35:44.125Z,-0.88
2019-01-21T04:38:30.492Z,-0.91
2019-01-21T04:41:24.348Z,-0.92
2019-01-21T04:44:28.297Z,-0.89
2019-01-21T04:47:28.363Z,-0.88
2019-01-21T04:50:16.397Z,-0.86
2019-01-21T04:52:58.355Z,-0.88
2019-01-21T04:55:34.111Z,-0.83
2019-01-21T04:58:06.708Z,-0.93
2019-01-21T05:00:48.734Z,-0.98
2019-01-21T05:03:35.250Z,-0.91
2019-01-21T05:06:11.160Z,-0.89
2019-01-21T05:08:49.602Z,-0.79
2019-01-21T05:11:30.971Z,-0.78
2019-01-21T05:14:06.556Z,-0.59
2019-01-21T05:16:51.643Z,-0.68
2019-01-21T05:19:24.294Z,-0.72
2019-01-21T05:22:03.234Z,-0.81
2019-01-21T05:24:38.994Z,-0.85
2019-01-21T05:27:25.556Z,-0.83
2019-01-21T05:30:13.141Z,-0.83
2019-01-21T05:33:02.278Z,-0.75
2019-01-21T05:35:40.529Z,-0.86
2019-01-21T05:38:16.482Z,-0.90
2019-01-21T05:40:55.260Z,-0.90
2019-01-21T05:43:44.472Z,-0.90
2019-01-21T05:46:19.675Z,-0.93
2019-01-21T05:48:58.417Z,-0.86
2019-01-21T05:51:42.985Z,-0.86
2019-01-21T05:54:12.735Z,-0.90
2019-01-21T05:56:51.469Z,-0.93
2019-01-21T05:59:23.904Z,-0.89
2019-01-21T06:01:56.606Z,-0.89
2019-01-21T06:04:38.055Z,-0.93
2019-01-21T06:07:10.732Z,-0.99
2019-01-21T06:09:46.237Z,-0.96
2019-01-21T06:12:21.288Z,-1.00
2019-01-21T06:15:06.065Z,-0.92
2019-01-21T06:17:41.435Z,-0.91
2019-01-21T06:20:29.835Z,-0.97
2019-01-21T06:23:15.076Z,-0.94
2019-01-21T06:26:00.241Z,-0.97
2019-01-21T06:28:41.073Z,-0.93
2019-01-21T06:31:46.562Z,-0.89
2019-01-21T06:34:36.989Z,-0.94
2019-01-21T06:37:24.859Z,-0.74
2019-01-21T06:40:19.198Z,-0.80
2019-01-21T06:43:10.097Z,-0.57
2019-01-21T06:46:13.254Z,-0.50
2019-01-21T06:49:04.755Z,-0.54
2019-01-21T06:51:41.524Z,-0.45
2019-01-21T06:54:14.114Z,-0.44
2019-01-21T06:56:52.831Z,-0.60
2019-01-21T06:59:34.630Z,-0.46
2019-01-21T07:02:04.388Z,-0.50
2019-01-21T07:04:34.211Z,-0.56
2019-01-21T07:07:23.897Z,-0.60
2019-01-21T07:09:56.404Z,-0.47
2019-01-21T07:12:41.212Z,-0.56
2019-01-21T07:15:27.495Z,-0.63
2019-01-21T07:18:06.001Z,-0.59
2019-01-21T07:20:44.575Z,-0.65
2019-01-21T07:23:17.357Z,-0.62
2019-01-21T07:26:05.262Z,-0.70
2019-01-21T07:28:38.167Z,-0.54
2019-01-21T07:31:17.078Z,-0.56
2019-01-21T07:33:59.023Z,-0.52
2019-01-21T07:36:49.391Z,-0.51
2019-01-21T07:39:25.021Z,-0.61
2019-01-21T07:42:09.944Z,-0.54
2019-01-21T07:44:54.492Z,-0.44
2019-01-21T07:47:40.115Z,-0.27
2019-01-21T07:50:09.941Z,-0.35
2019-01-21T07:52:45.243Z,-0.25
2019-01-21T07:55:32.534Z,-0.29
2019-01-21T07:58:11.048Z,-0.13
2019-01-21T08:00:46.576Z,-0.19
2019-01-21T08:03:40.946Z,-0.15
2019-01-21T08:06:19.684Z,-0.13
2019-01-21T08:08:52.153Z,-0.18
2019-01-21T08:11:24.910Z,-0.08
2019-01-21T08:14:00.545Z,-0.06
2019-01-21T08:16:42.374Z,0.08
2019-01-21T08:19:14.836Z,0.25
2019-01-21T08:22:17.703Z,0.43
2019-01-21T08:25:19.474Z,0.44
2019-01-21T08:27:55.610Z,0.64
2019-01-21T08:30:42.097Z,0.75
2019-01-21T08:33:14.802Z,0.85
2019-01-21T08:35:50.658Z,0.99
2019-01-21T08:38:23.504Z,1.03
2019-01-21T08:40:56.160Z,1.14
2019-01-21T08:43:40.438Z,1.04
2019-01-21T08:46:31.146Z,1.12
2019-01-21T08:49:00.954Z,1.22
2019-01-21T08:51:42.915Z,1.45
2019-01-21T08:54:15.597Z,1.54
2019-01-21T08:56:57.313Z,1.66
2019-01-21T08:59:30.015Z,1.81
2019-01-21T09:02:12.064Z,1.97
2019-01-21T09:04:57.110Z,2.02
2019-01-21T09:07:41.877Z,2.13
2019-01-21T09:10:40.927Z,2.22
2019-01-21T09:13:22.425Z,2.42
2019-01-21T09:16:03.560Z,2.47
2019-01-21T09:18:39.122Z,2.62
2019-01-21T09:21:11.322Z,3.00
2019-01-21T09:23:44.701Z,3.10
2019-01-21T09:26:34.059Z,3.14
2019-01-21T09:29:06.815Z,3.08
2019-01-21T09:31:57.679Z,3.06
2019-01-21T09:34:27.439Z,3.14
2019-01-21T09:37:17.171Z,3.09
2019-01-21T09:39:49.846Z,3.09
2019-01-21T09:42:28.740Z,3.19
2019-01-21T09:45:13.191Z,3.11
2019-01-21T09:47:38.944Z,3.11
2019-01-21T09:50:05.041Z,3.03
2019-01-21T09:52:30.926Z,3.12
2019-01-21T09:54:56.811Z,3.12
2019-01-21T09:57:23.201Z,3.17
2019-01-21T09:59:50.020Z,3.15
2019-01-21T10:02:16.705Z,3.15
2019-01-21T10:04:43.808Z,3.37
2019-01-21T10:07:16.072Z,3.49
2019-01-21T10:09:57.800Z,3.41
2019-01-21T10:12:44.348Z,3.52
2019-01-21T10:15:30.121Z,3.68
2019-01-21T10:18:21.168Z,3.83
2019-01-21T10:21:18.323Z,3.96
2019-01-21T10:23:51.053Z,4.26
2019-01-21T10:26:32.915Z,4.37
2019-01-21T10:29:08.951Z,4.50
2019-01-21T10:31:50.313Z,4.51
2019-01-21T10:34:50.159Z,4.68
2019-01-21T10:37:47.475Z,4.74
2019-01-21T10:40:20.092Z,5.15
2019-01-21T10:43:12.151Z,5.39
2019-01-21T10:46:03.131Z,4.86
2019-01-21T10:49:00.204Z,5.11
2019-01-21T10:51:54.385Z,5.02
2019-01-21T10:54:32.918Z,5.13
2019-01-21T10:57:08.428Z,5.18
2019-01-21T10:59:50.416Z,5.91
2019-01-21T11:02:36.753Z,5.94
2019-01-21T11:05:09.252Z,6.20
2019-01-21T11:07:51.096Z,5.73
2019-01-21T11:10:25.838Z,5.85
2019-01-21T11:12:58.625Z,6.41
2019-01-21T11:15:28.309Z,6.79
2019-01-21T11:18:04.335Z,6.86
2019-01-21T11:20:42.499Z,6.90
2019-01-21T11:23:33.892Z,6.48
2019-01-21T11:26:22.927Z,6.56
2019-01-21T11:28:52.714Z,6.96
2019-01-21T11:31:30.961Z,7.07
2019-01-21T11:34:09.455Z,7.19
2019-01-21T11:36:58.683Z,7.03
2019-01-21T11:39:28.401Z,7.09
2019-01-21T11:42:16.433Z,6.80
2019-01-21T11:44:55.190Z,6.37
2019-01-21T11:47:49.264Z,6.67
2019-01-21T11:50:19.017Z,6.79
2019-01-21T11:52:57.451Z,6.45
2019-01-21T11:55:33.076Z,6.32
2019-01-21T11:58:12.381Z,6.35
2019-01-21T12:00:50.815Z,6.11
2019-01-21T12:03:23.681Z,6.18
2019-01-21T12:05:50.957Z,6.11
2019-01-21T12:08:23.394Z,6.16
2019-01-21T12:10:56.068Z,6.45
2019-01-21T12:13:47.348Z,6.21
2019-01-21T12:16:20.089Z,6.40
2019-01-21T12:18:59.058Z,6.33
2019-01-21T12:21:31.478Z,6.60
2019-01-21T12:24:01.147Z,6.63
2019-01-21T12:26:39.878Z,6.56
2019-01-21T12:29:12.602Z,7.23
2019-01-21T12:31:54.385Z,7.08
2019-01-21T12:34:33.004Z,7.17
2019-01-21T12:37:02.664Z,7.44
2019-01-21T12:39:41.680Z,7.18
2019-01-21T12:42:11.372Z,7.51
2019-01-21T12:44:55.687Z,7.50
2019-01-21T12:47:31.235Z,7.15
2019-01-21T12:50:24.099Z,7.78
2019-01-21T12:52:53.450Z,7.95
2019-01-21T12:55:29.162Z,8.60
2019-01-21T12:58:08.144Z,8.23
2019-01-21T13:00:44.180Z,8.03
2019-01-21T13:03:23.259Z,8.70
2019-01-21T13:06:09.903Z,7.89
2019-01-21T13:08:45.897Z,10.39
2019-01-21T13:11:18.741Z,14.57
2019-01-21T13:13:54.716Z,13.22
2019-01-21T13:16:27.408Z,13.85
2019-01-21T13:19:30.631Z,14.20
2019-01-21T13:22:14.907Z,10.52
2019-01-21T13:24:55.677Z,10.97
2019-01-21T13:27:51.372Z,7.31
2019-01-21T13:30:29.888Z,7.78
2019-01-21T13:33:15.658Z,7.56
2019-01-21T13:36:00.630Z,6.93
2019-01-21T13:38:42.029Z,6.92
2019-01-21T13:41:11.720Z,6.48
2019-01-21T13:43:52.938Z,6.93
2019-01-21T13:46:44.341Z,6.63
2019-01-21T13:49:14.045Z,6.86
2019-01-21T13:51:49.607Z,7.01
2019-01-21T13:54:28.206Z,7.33
2019-01-21T13:57:01.259Z,6.98
2019-01-21T13:59:53.866Z,7.21
2019-01-21T14:02:26.321Z,6.84
2019-01-21T14:05:07.859Z,6.93
2019-01-21T14:07:57.430Z,7.27
2019-01-21T14:10:32.947Z,7.39
2019-01-21T14:13:05.795Z,7.61
2019-01-21T14:15:38.436Z,7.15
2019-01-21T14:18:25.962Z,6.89
2019-01-21T14:21:01.725Z,7.03
2019-01-21T14:23:52.870Z,6.86
2019-01-21T14:26:39.365Z,7.15
2019-01-21T14:29:15.363Z,7.25
2019-01-21T14:31:50.795Z,6.90
2019-01-21T14:34:26.024Z,6.93
2019-01-21T14:37:29.111Z,6.90
2019-01-21T14:40:14.339Z,6.82
2019-01-21T14:42:55.885Z,6.79
2019-01-21T14:45:34.541Z,6.42
2019-01-21T14:48:30.443Z,6.66
2019-01-21T14:51:19.596Z,6.87
2019-01-21T14:53:52.060Z,6.66
2019-01-21T14:56:24.842Z,6.54
2019-01-21T14:59:11.105Z,6.30
2019-01-21T15:01:46.804Z,6.33
2019-01-21T15:04:34.641Z,5.96
2019-01-21T15:07:07.479Z,5.79
2019-01-21T15:09:39.999Z,5.48
2019-01-21T15:12:21.824Z,5.42
2019-01-21T15:15:24.941Z,5.36
2019-01-21T15:18:14.597Z,5.21
2019-01-21T15:20:47.351Z,5.05
2019-01-21T15:23:41.633Z,4.90
2019-01-21T15:26:11.317Z,4.87
2019-01-21T15:29:15.918Z,4.88
2019-01-21T15:31:51.650Z,4.81
2019-01-21T15:34:33.650Z,4.80
2019-01-21T15:37:24.707Z,4.65
2019-01-21T15:39:57.559Z,4.60
2019-01-21T15:42:33.300Z,4.60
2019-01-21T15:45:25.644Z,4.55
2019-01-21T15:47:56.796Z,4.51
2019-01-21T15:50:54.117Z,4.33
2019-01-21T15:53:42.180Z,4.26
2019-01-21T15:56:30.266Z,4.23
2019-01-21T15:59:02.945Z,4.23
2019-01-21T16:01:32.617Z,4.16
2019-01-21T16:04:08.186Z,4.01
2019-01-21T16:06:37.891Z,4.00
2019-01-21T16:09:07.566Z,3.90
2019-01-21T16:11:37.273Z,3.69
2019-01-21T16:14:03.257Z,3.69
2019-01-21T16:16:35.868Z,3.68
2019-01-21T16:19:08.626Z,3.63
2019-01-21T16:21:53.861Z,3.53
2019-01-21T16:24:23.583Z,3.51
2019-01-21T16:26:55.974Z,3.48
2019-01-21T16:29:25.632Z,3.43
2019-01-21T16:31:53.738Z,3.42
2019-01-21T16:34:38.346Z,3.33
2019-01-21T16:37:20.153Z,3.25
2019-01-21T16:40:08.016Z,3.25
2019-01-21T16:42:34.505Z,3.08
2019-01-21T16:45:00.400Z,3.08
2019-01-21T16:47:26.653Z,2.97
2019-01-21T16:49:52.612Z,3.09
2019-01-21T16:52:18.507Z,3.01
2019-01-21T16:54:44.368Z,2.93
2019-01-21T16:57:13.781Z,3.04
2019-01-21T16:59:39.729Z,3.16
2019-01-21T17:02:05.601Z,3.16
2019-01-21T17:04:32.812Z,3.26
2019-01-21T17:06:58.897Z,3.10
2019-01-21T17:09:24.795Z,3.10
2019-01-21T17:11:50.685Z,3.04
2019-01-21T17:14:16.557Z,2.98
2019-01-21T17:16:42.574Z,2.92
2019-01-21T17:19:08.478Z,2.72
2019-01-21T17:24:01.264Z,2.67
2019-01-21T17:26:27.191Z,2.63
2019-01-21T17:28:54.116Z,2.66
2019-01-21T17:31:20.054Z,2.60
2019-01-21T17:33:45.979Z,2.60
2019-01-21T17:36:11.922Z,2.60
2019-01-21T17:38:37.810Z,2.57
2019-01-21T17:41:03.747Z,2.50
2019-01-21T17:43:29.736Z,2.52
2019-01-21T17:45:55.615Z,2.46
2019-01-21T17:48:21.496Z,2.46
2019-01-21T17:50:47.402Z,2.48
2019-01-21T17:53:13.279Z,2.49
2019-01-21T17:55:39.156Z,2.33
2019-01-21T17:58:05.081Z,2.31
2019-01-21T18:00:30.961Z,2.36
2019-01-21T18:02:57.006Z,2.32
2019-01-21T18:05:22.862Z,2.36
2019-01-21T18:07:48.749Z,2.24
2019-01-21T18:10:16.703Z,2.25
2019-01-21T18:12:42.688Z,2.09
2019-01-21T18:15:10.271Z,2.09
2019-01-21T18:17:36.223Z,2.08
2019-01-21T18:20:08.796Z,2.03
2019-01-21T18:22:34.651Z,2.14
2019-01-21T18:25:00.575Z,2.04
2019-01-21T18:27:26.520Z,2.06
2019-01-21T18:29:52.411Z,2.03
2019-01-21T18:32:18.278Z,1.92
2019-01-21T18:34:44.168Z,1.97
2019-01-21T18:37:10.117Z,1.91
2019-01-21T18:39:35.994Z,1.93
2019-01-21T18:42:02.126Z,1.82
2019-01-21T18:44:28.046Z,1.87
2019-01-21T18:46:54.158Z,1.87
2019-01-21T18:49:22.908Z,1.94
2019-01-21T18:51:47.905Z,1.96
2019-01-21T18:54:13.877Z,1.83
2019-01-21T18:56:43.787Z,1.76
2019-01-21T18:59:09.748Z,1.76
2019-01-21T19:01:35.652Z,1.75
2019-01-21T19:04:01.526Z,1.73
2019-01-21T19:06:27.445Z,1.74
2019-01-21T19:08:53.328Z,1.68
2019-01-21T19:11:19.194Z,1.68
2019-01-21T19:13:45.107Z,1.61
2019-01-21T19:16:10.969Z,1.64
2019-01-21T19:18:36.942Z,1.63
2019-01-21T19:21:02.792Z,1.64
2019-01-21T19:23:28.689Z,1.56
2019-01-21T19:25:54.575Z,1.44
2019-01-21T19:28:20.621Z,1.37
2019-01-21T19:30:46.604Z,1.40
2019-01-21T19:33:12.907Z,1.41
2019-01-21T19:35:38.781Z,1.41
2019-01-21T19:38:04.689Z,1.33
2019-01-21T19:40:32.142Z,1.35
2019-01-21T19:42:58.095Z,1.24
2019-01-21T19:45:24.089Z,1.23
2019-01-21T19:47:50.036Z,1.26
2019-01-21T19:50:20.649Z,1.30
2019-01-21T19:52:46.504Z,1.26
2019-01-21T19:55:21.530Z,1.24
2019-01-21T19:57:47.618Z,1.18
2019-01-21T20:00:17.311Z,1.20
2019-01-21T20:02:44.527Z,1.10
2019-01-21T20:05:10.865Z,1.13
2019-01-21T20:07:36.749Z,1.06
2019-01-21T20:10:06.395Z,1.03
2019-01-21T20:12:32.291Z,1.08
2019-01-21T20:14:58.991Z,0.94
2019-01-21T20:17:24.849Z,0.91
2019-01-21T20:19:50.724Z,0.91
2019-01-21T20:22:16.607Z,0.88
2019-01-21T20:24:42.578Z,0.93
2019-01-21T20:27:08.524Z,0.85
2019-01-21T20:29:34.417Z,0.80
2019-01-21T20:32:00.285Z,0.80
2019-01-21T20:34:26.534Z,0.87
2019-01-21T20:36:52.441Z,0.78
2019-01-21T20:39:18.357Z,0.86
2019-01-21T20:41:44.190Z,0.94
2019-01-21T20:44:10.087Z,1.00
2019-01-21T20:46:36.003Z,0.94
2019-01-21T20:49:01.870Z,0.84
2019-01-21T20:51:27.753Z,0.81
2019-01-21T20:53:53.660Z,0.66
2019-01-21T20:56:19.694Z,0.67
2019-01-21T20:58:45.604Z,0.62
2019-01-21T21:01:11.599Z,0.72
2019-01-21T21:03:37.458Z,0.57
2019-01-21T21:06:03.353Z,0.71
2019-01-21T21:08:29.348Z,0.71
2019-01-21T21:10:55.222Z,0.66
2019-01-21T21:13:21.251Z,0.65
2019-01-21T21:15:47.286Z,0.60
2019-01-21T21:18:13.293Z,0.63
2019-01-21T21:20:39.162Z,0.61
2019-01-21T21:23:05.029Z,0.57
2019-01-21T21:25:30.962Z,0.60
2019-01-21T21:27:56.846Z,0.52
2019-01-21T21:30:25.151Z,0.57
2019-01-21T21:32:51.031Z,0.57
2019-01-21T21:35:17.376Z,0.40
2019-01-21T21:37:43.256Z,0.34
2019-01-21T21:40:12.022Z,0.38
2019-01-21T21:42:37.940Z,0.31
2019-01-21T21:45:07.306Z,0.25
2019-01-21T21:47:33.206Z,0.12
2019-01-21T21:49:59.102Z,0.15
2019-01-21T21:52:27.856Z,0.13
2019-01-21T21:54:53.238Z,0.13
2019-01-21T21:57:19.111Z,0.17
2019-01-21T21:59:45.020Z,0.23
2019-01-21T22:02:10.924Z,0.11
2019-01-21T22:04:36.797Z,0.17
2019-01-21T22:07:02.681Z,0.18
2019-01-21T22:09:28.565Z,0.33
2019-01-21T22:11:54.496Z,0.41
2019-01-21T22:14:20.500Z,0.29
2019-01-21T22:16:46.369Z,0.36
2019-01-21T22:19:12.247Z,0.29
2019-01-21T22:21:38.136Z,0.34
2019-01-21T22:24:04.022Z,0.34
2019-01-21T22:26:29.867Z,0.26
2019-01-21T22:28:55.862Z,0.27
2019-01-21T22:31:21.745Z,0.34
2019-01-21T22:33:47.628Z,0.30
2019-01-21T22:36:13.539Z,0.27
2019-01-21T22:38:39.562Z,0.26
2019-01-21T22:41:06.017Z,0.21
2019-01-21T22:43:31.946Z,0.28
2019-01-21T22:45:57.838Z,0.23
2019-01-21T22:48:23.756Z,0.23
2019-01-21T22:50:49.623Z,0.16
2019-01-21T22:53:15.542Z,0.17
2019-01-21T22:55:41.394Z,0.28
2019-01-21T22:58:07.693Z,0.27
2019-01-21T23:00:45.939Z,0.18
2019-01-21T23:03:12.139Z,0.33
2019-01-21T23:05:38.133Z,0.27
2019-01-21T23:08:03.982Z,0.28
2019-01-21T23:10:29.884Z,0.23
2019-01-21T23:12:55.779Z,0.31
2019-01-21T23:15:21.657Z,0.21
2019-01-21T23:17:47.551Z,0.25
2019-01-21T23:20:13.458Z,0.21
2019-01-21T23:22:39.314Z,0.17
2019-01-21T23:25:05.787Z,-0.01
2019-01-21T23:27:31.752Z,-0.16
2019-01-21T23:29:57.630Z,-0.14
2019-01-21T23:32:23.478Z,-0.03
2019-01-21T23:34:49.347Z,0.04
2019-01-21T23:37:15.230Z,-0.18
2019-01-21T23:39:41.105Z,-0.21
2019-01-21T23:42:06.996Z,-0.16
2019-01-21T23:44:32.889Z,-0.17
2019-01-21T23:46:59.103Z,-0.09
2019-01-21T23:49:24.976Z,-0.13
2019-01-21T23:51:50.917Z,-0.14
2019-01-21T23:54:16.793Z,-0.12
2019-01-21T23:56:42.653Z,-0.14
2019-01-21T23:59:08.536Z,-0.04
